sensor_id;sensor_type;location;lat;lon;timestamp;P1;P2;P0
73832;PMS7003;62179;48.444;-4.464;2024-01-15T12:57:45;0.00;0.00;0.00
73832;PMS7003;62179;48.444;-4.464;2024-01-15T13:00:11;0.00;0.00;0.00
73832;PMS7003;62179;48.444;-4.464;2024-01-15T13:02:40;0.00;0.00;0.00
73832;PMS7003;62179;48.444;-4.464;2024-01-15T13:05:07;1.00;0.00;0.00
73832;PMS7003;62179;48.444;-4.464;2024-01-15T13:07:34;0.00;0.00;0.00
73832;PMS7003;62179;48.444;-4.464;2024-01-15T13:09:59;0.25;0.00;0.00
73832;PMS7003;62179;48.444;-4.464;2024-01-15T13:12:25;0.00;0.00;0.00
73832;PMS7003;62179;48.444;-4.464;2024-01-15T13:14:50;1.00;0.00;0.00
73832;PMS7003;62179;48.444;-4.464;2024-01-15T13:17:16;0.00;0.00;0.00
73832;PMS7003;62179;48.444;-4.464;2024-01-15T13:19:41;0.00;0.00;0.00
73832;PMS7003;62179;48.444;-4.464;2024-01-15T13:22:07;0.00;0.00;0.00
73832;PMS7003;62179;48.444;-4.464;2024-01-15T13:24:34;1.00;0.00;0.00
73832;PMS7003;62179;48.444;-4.464;2024-01-15T13:27:01;0.00;0.00;0.00
73832;PMS7003;62179;48.444;-4.464;2024-01-15T13:29:27;0.00;0.00;0.00
73832;PMS7003;62179;48.444;-4.464;2024-01-15T13:31:53;0.00;0.00;0.00
73832;PMS7003;62179;48.444;-4.464;2024-01-15T13:34:18;0.25;0.00;0.00
73832;PMS7003;62179;48.444;-4.464;2024-01-15T13:36:44;0.00;0.00;0.00
73832;PMS7003;62179;48.444;-4.464;2024-01-15T13:39:10;0.00;0.00;0.00
73832;PMS7003;62179;48.444;-4.464;2024-01-15T13:41:36;0.00;0.00;0.00
73832;PMS7003;62179;48.444;-4.464;2024-01-15T13:44:01;0.00;0.00;0.00
73832;PMS7003;62179;48.444;-4.464;2024-01-15T13:46:28;0.00;0.00;0.00
73832;PMS7003;62179;48.444;-4.464;2024-01-15T13:48:56;0.00;0.00;0.00
73832;PMS7003;62179;48.444;-4.464;2024-01-15T13:51:22;1.00;0.00;0.00
73832;PMS7003;62179;48.444;-4.464;2024-01-15T13:53:50;0.75;0.00;0.00
73832;PMS7003;62179;48.444;-4.464;2024-01-15T13:56:16;0.00;0.00;0.00
73832;PMS7003;62179;48.444;-4.464;2024-01-15T13:58:42;0.00;0.00;0.00
73832;PMS7003;62179;48.444;-4.464;2024-01-15T14:01:08;1.00;0.00;0.00
73832;PMS7003;62179;48.444;-4.464;2024-01-15T14:03:34;0.00;0.00;0.00
73832;PMS7003;62179;48.444;-4.464;2024-01-15T14:06:00;0.00;0.00;0.00
73832;PMS7003;62179;48.444;-4.464;2024-01-15T14:08:28;0.00;0.00;0.00
73832;PMS7003;62179;48.444;-4.464;2024-01-15T14:10:53;0.00;0.00;0.00
73832;PMS7003;62179;48.444;-4.464;2024-01-15T14:13:21;0.00;0.00;0.00
73832;PMS7003;62179;48.444;-4.464;2024-01-15T14:15:47;0.00;0.00;0.00
73832;PMS7003;62179;48.444;-4.464;2024-01-15T14:18:14;0.00;0.00;0.00
73832;PMS7003;62179;48.444;-4.464;2024-01-15T14:20:40;0.25;0.00;0.00
73832;PMS7003;62179;48.444;-4.464;2024-01-15T14:23:10;0.00;0.00;0.00
73832;PMS7003;62179;48.444;-4.464;2024-01-15T14:25:35;0.00;0.00;0.00
73832;PMS7003;62179;48.444;-4.464;2024-01-15T14:28:04;0.00;0.00;0.00
73832;PMS7003;62179;48.444;-4.464;2024-01-15T14:30:30;0.00;0.00;0.00
73832;PMS7003;62179;48.444;-4.464;2024-01-15T14:32:55;0.00;0.00;0.00
73832;PMS7003;62179;48.444;-4.464;2024-01-15T14:35:24;0.00;0.00;0.00
73832;PMS7003;62179;48.444;-4.464;2024-01-15T14:37:49;0.75;0.00;0.00
73832;PMS7003;62179;48.444;-4.464;2024-01-15T14:40:15;0.00;0.00;0.00
73832;PMS7003;62179;48.444;-4.464;2024-01-15T14:42:41;0.25;0.00;0.00
73832;PMS7003;62179;48.444;-4.464;2024-01-15T14:45:07;0.00;0.00;0.00
73832;PMS7003;62179;48.444;-4.464;2024-01-15T14:47:41;0.00;0.00;0.00
73832;PMS7003;62179;48.444;-4.464;2024-01-15T14:50:07;0.00;0.00;0.00
73832;PMS7003;62179;48.444;-4.464;2024-01-15T14:52:33;0.00;0.00;0.00
73832;PMS7003;62179;48.444;-4.464;2024-01-15T14:54:59;0.00;0.00;0.00
73832;PMS7003;62179;48.444;-4.464;2024-01-15T14:57:28;0.75;0.75;0.00
73832;PMS7003;62179;48.444;-4.464;2024-01-15T14:59:54;0.00;0.00;0.00
73832;PMS7003;62179;48.444;-4.464;2024-01-15T15:02:19;0.00;0.00;0.00
73832;PMS7003;62179;48.444;-4.464;2024-01-15T15:04:48;0.00;0.00;0.00
73832;PMS7003;62179;48.444;-4.464;2024-01-15T15:07:13;1.00;1.00;0.00
73832;PMS7003;62179;48.444;-4.464;2024-01-15T15:09:39;0.00;0.00;0.00
73832;PMS7003;62179;48.444;-4.464;2024-01-15T15:12:05;0.00;0.00;0.00
73832;PMS7003;62179;48.444;-4.464;2024-01-15T15:14:31;0.00;0.00;0.00
73832;PMS7003;62179;48.444;-4.464;2024-01-15T15:17:02;0.00;0.00;0.00
73832;PMS7003;62179;48.444;-4.464;2024-01-15T15:19:31;0.25;0.00;0.00
73832;PMS7003;62179;48.444;-4.464;2024-01-15T15:21:57;0.00;0.00;0.00
73832;PMS7003;62179;48.444;-4.464;2024-01-15T15:24:23;1.00;0.00;0.00
73832;PMS7003;62179;48.444;-4.464;2024-01-15T15:26:48;0.00;0.00;0.00
73832;PMS7003;62179;48.444;-4.464;2024-01-15T15:29:14;0.00;0.00;0.00
73832;PMS7003;62179;48.444;-4.464;2024-01-15T15:31:41;0.00;0.00;0.00
73832;PMS7003;62179;48.444;-4.464;2024-01-15T15:34:10;0.00;0.00;0.00
73832;PMS7003;62179;48.444;-4.464;2024-01-15T15:36:38;0.50;0.00;0.00
73832;PMS7003;62179;48.444;-4.464;2024-01-15T15:39:03;0.00;0.00;0.00
73832;PMS7003;62179;48.444;-4.464;2024-01-15T15:41:29;0.00;0.00;0.00
73832;PMS7003;62179;48.444;-4.464;2024-01-15T15:43:54;0.00;0.00;0.00
73832;PMS7003;62179;48.444;-4.464;2024-01-15T15:46:20;1.00;1.00;0.00
73832;PMS7003;62179;48.444;-4.464;2024-01-15T15:48:45;0.00;0.00;0.00
73832;PMS7003;62179;48.444;-4.464;2024-01-15T15:51:11;1.50;0.00;0.00
73832;PMS7003;62179;48.444;-4.464;2024-01-15T15:53:36;0.00;0.00;0.00
73832;PMS7003;62179;48.444;-4.464;2024-01-15T15:56:03;1.00;1.00;0.00
73832;PMS7003;62179;48.444;-4.464;2024-01-15T15:58:28;0.00;0.00;0.00
73832;PMS7003;62179;48.444;-4.464;2024-01-15T16:00:54;0.00;0.00;0.00
73832;PMS7003;62179;48.444;-4.464;2024-01-15T16:03:19;0.00;0.00;0.00
73832;PMS7003;62179;48.444;-4.464;2024-01-15T16:05:47;0.00;0.00;0.00
73832;PMS7003;62179;48.444;-4.464;2024-01-15T16:08:13;0.00;0.00;0.00
73832;PMS7003;62179;48.444;-4.464;2024-01-15T16:10:39;0.75;0.75;0.00
73832;PMS7003;62179;48.444;-4.464;2024-01-15T16:13:04;1.00;1.00;1.00
73832;PMS7003;62179;48.444;-4.464;2024-01-15T16:15:30;0.00;0.00;0.00
73832;PMS7003;62179;48.444;-4.464;2024-01-15T16:17:56;0.00;0.00;0.00
73832;PMS7003;62179;48.444;-4.464;2024-01-15T16:20:21;2.00;2.00;1.50
73832;PMS7003;62179;48.444;-4.464;2024-01-15T16:22:47;0.00;0.00;0.00
73832;PMS7003;62179;48.444;-4.464;2024-01-15T16:25:15;1.00;1.00;0.00
73832;PMS7003;62179;48.444;-4.464;2024-01-15T16:27:40;0.00;0.00;0.00
73832;PMS7003;62179;48.444;-4.464;2024-01-15T16:30:14;0.00;0.00;0.00
73832;PMS7003;62179;48.444;-4.464;2024-01-15T16:32:40;0.00;0.00;0.00
73832;PMS7003;62179;48.444;-4.464;2024-01-15T16:35:05;1.25;0.00;0.00
73832;PMS7003;62179;48.444;-4.464;2024-01-15T16:37:32;0.00;0.00;0.00
73832;PMS7003;62179;48.444;-4.464;2024-01-15T16:39:57;0.00;0.00;0.00
73832;PMS7003;62179;48.444;-4.464;2024-01-15T16:42:23;0.50;0.50;0.00
73832;PMS7003;62179;48.444;-4.464;2024-01-15T16:44:49;1.25;0.75;0.00
73832;PMS7003;62179;48.444;-4.464;2024-01-15T16:47:15;1.00;1.00;0.00
73832;PMS7003;62179;48.444;-4.464;2024-01-15T16:49:40;0.25;0.25;0.25
73832;PMS7003;62179;48.444;-4.464;2024-01-15T16:52:06;1.00;1.00;0.00
73832;PMS7003;62179;48.444;-4.464;2024-01-15T16:54:32;1.00;1.00;0.50
73832;PMS7003;62179;48.444;-4.464;2024-01-15T16:56:58;2.00;1.00;0.00
73832;PMS7003;62179;48.444;-4.464;2024-01-15T16:59:24;1.75;1.00;1.00
73832;PMS7003;62179;48.444;-4.464;2024-01-15T17:01:50;1.75;1.75;0.50
73832;PMS7003;62179;48.444;-4.464;2024-01-15T17:04:16;4.50;2.00;1.25
73832;PMS7003;62179;48.444;-4.464;2024-01-15T17:06:42;2.50;2.50;1.75
73832;PMS7003;62179;48.444;-4.464;2024-01-15T17:09:07;2.75;1.00;1.00
73832;PMS7003;62179;48.444;-4.464;2024-01-15T17:11:33;3.50;3.50;2.00
73832;PMS7003;62179;48.444;-4.464;2024-01-15T17:13:58;1.75;1.00;0.00
73832;PMS7003;62179;48.444;-4.464;2024-01-15T17:16:24;2.25;2.00;2.00
73832;PMS7003;62179;48.444;-4.464;2024-01-15T17:18:50;1.00;1.00;1.00
73832;PMS7003;62179;48.444;-4.464;2024-01-15T17:21:15;3.75;2.75;2.00
73832;PMS7003;62179;48.444;-4.464;2024-01-15T17:23:41;6.00;3.50;2.50
73832;PMS7003;62179;48.444;-4.464;2024-01-15T17:26:06;7.00;3.00;2.00
73832;PMS7003;62179;48.444;-4.464;2024-01-15T17:28:32;3.00;1.50;1.25
73832;PMS7003;62179;48.444;-4.464;2024-01-15T17:30:58;4.00;3.00;2.00
73832;PMS7003;62179;48.444;-4.464;2024-01-15T17:33:23;2.00;2.00;2.00
73832;PMS7003;62179;48.444;-4.464;2024-01-15T17:35:53;0.00;0.00;0.00
73832;PMS7003;62179;48.444;-4.464;2024-01-15T17:38:20;2.50;2.00;1.00
73832;PMS7003;62179;48.444;-4.464;2024-01-15T17:40:45;2.00;2.00;1.75
73832;PMS7003;62179;48.444;-4.464;2024-01-15T17:43:11;0.00;0.00;0.00
73832;PMS7003;62179;48.444;-4.464;2024-01-15T17:45:37;1.00;1.00;0.00
73832;PMS7003;62179;48.444;-4.464;2024-01-15T17:48:03;4.50;4.25;3.00
73832;PMS7003;62179;48.444;-4.464;2024-01-15T17:50:29;6.50;3.75;3.25
73832;PMS7003;62179;48.444;-4.464;2024-01-15T17:52:55;7.50;7.00;5.00
73832;PMS7003;62179;48.444;-4.464;2024-01-15T17:55:22;7.25;3.50;1.25
73832;PMS7003;62179;48.444;-4.464;2024-01-15T17:57:48;3.25;3.25;3.00
73832;PMS7003;62179;48.444;-4.464;2024-01-15T18:00:16;2.00;2.00;2.00
73832;PMS7003;62179;48.444;-4.464;2024-01-15T18:02:43;2.00;1.00;0.25
73832;PMS7003;62179;48.444;-4.464;2024-01-15T18:05:09;0.25;0.00;0.00
73832;PMS7003;62179;48.444;-4.464;2024-01-15T18:07:34;1.00;1.00;0.00
73832;PMS7003;62179;48.444;-4.464;2024-01-15T18:10:00;0.00;0.00;0.00
73832;PMS7003;62179;48.444;-4.464;2024-01-15T18:12:25;1.00;1.00;1.00
73832;PMS7003;62179;48.444;-4.464;2024-01-15T18:14:54;1.00;1.00;0.75
73832;PMS7003;62179;48.444;-4.464;2024-01-15T18:17:19;3.00;2.00;1.00
73832;PMS7003;62179;48.444;-4.464;2024-01-15T18:19:48;1.00;0.00;0.00
73832;PMS7003;62179;48.444;-4.464;2024-01-15T18:22:13;1.00;1.00;1.00
73832;PMS7003;62179;48.444;-4.464;2024-01-15T18:24:40;2.00;2.00;2.00
73832;PMS7003;62179;48.444;-4.464;2024-01-15T18:27:06;1.00;1.00;0.00
73832;PMS7003;62179;48.444;-4.464;2024-01-15T18:29:33;4.75;4.75;2.00
73832;PMS7003;62179;48.444;-4.464;2024-01-15T18:31:59;0.50;0.50;0.50
73832;PMS7003;62179;48.444;-4.464;2024-01-15T18:34:25;2.25;2.25;1.75
73832;PMS7003;62179;48.444;-4.464;2024-01-15T18:36:50;0.50;0.50;0.00
73832;PMS7003;62179;48.444;-4.464;2024-01-15T18:39:16;2.00;2.00;2.00
73832;PMS7003;62179;48.444;-4.464;2024-01-15T18:41:45;2.00;1.75;1.00
73832;PMS7003;62179;48.444;-4.464;2024-01-15T18:44:11;2.00;0.50;0.00
73832;PMS7003;62179;48.444;-4.464;2024-01-15T18:46:37;2.50;2.50;1.00
73832;PMS7003;62179;48.444;-4.464;2024-01-15T18:49:05;1.50;1.50;1.25
73832;PMS7003;62179;48.444;-4.464;2024-01-15T18:51:31;1.00;1.00;1.00
73832;PMS7003;62179;48.444;-4.464;2024-01-15T18:53:57;1.75;1.25;1.00
73832;PMS7003;62179;48.444;-4.464;2024-01-15T18:56:22;1.50;1.25;0.75
73832;PMS7003;62179;48.444;-4.464;2024-01-15T18:58:48;0.00;0.00;0.00
73832;PMS7003;62179;48.444;-4.464;2024-01-15T19:01:24;0.00;0.00;0.00
73832;PMS7003;62179;48.444;-4.464;2024-01-15T19:03:57;0.00;0.00;0.00
73832;PMS7003;62179;48.444;-4.464;2024-01-15T19:06:23;0.25;0.00;0.00
73832;PMS7003;62179;48.444;-4.464;2024-01-15T19:08:49;0.25;0.25;0.00
73832;PMS7003;62179;48.444;-4.464;2024-01-15T19:11:15;1.00;1.00;1.00
73832;PMS7003;62179;48.444;-4.464;2024-01-15T19:13:42;2.50;2.25;2.00
73832;PMS7003;62179;48.444;-4.464;2024-01-15T19:16:07;3.00;1.00;1.00
73832;PMS7003;62179;48.444;-4.464;2024-01-15T19:18:33;0.00;0.00;0.00
73832;PMS7003;62179;48.444;-4.464;2024-01-15T19:20:59;1.00;1.00;1.00
73832;PMS7003;62179;48.444;-4.464;2024-01-15T19:23:25;1.00;1.00;0.25
73832;PMS7003;62179;48.444;-4.464;2024-01-15T19:25:51;0.00;0.00;0.00
73832;PMS7003;62179;48.444;-4.464;2024-01-15T19:28:16;1.25;1.00;1.00
73832;PMS7003;62179;48.444;-4.464;2024-01-15T19:30:41;5.00;0.75;0.75
73832;PMS7003;62179;48.444;-4.464;2024-01-15T19:33:07;2.00;2.00;2.00
73832;PMS7003;62179;48.444;-4.464;2024-01-15T19:35:33;2.00;0.50;0.00
73832;PMS7003;62179;48.444;-4.464;2024-01-15T19:37:59;1.25;1.25;0.00
73832;PMS7003;62179;48.444;-4.464;2024-01-15T19:40:26;0.25;0.25;0.25
73832;PMS7003;62179;48.444;-4.464;2024-01-15T19:42:52;1.75;1.75;1.00
73832;PMS7003;62179;48.444;-4.464;2024-01-15T19:45:18;0.25;0.00;0.00
73832;PMS7003;62179;48.444;-4.464;2024-01-15T19:47:44;2.00;1.00;1.00
73832;PMS7003;62179;48.444;-4.464;2024-01-15T19:50:09;2.00;2.00;1.75
73832;PMS7003;62179;48.444;-4.464;2024-01-15T19:52:34;1.75;1.75;0.75
73832;PMS7003;62179;48.444;-4.464;2024-01-15T19:55:00;0.50;0.50;0.50
73832;PMS7003;62179;48.444;-4.464;2024-01-15T19:57:25;1.75;1.75;1.75
73832;PMS7003;62179;48.444;-4.464;2024-01-15T19:59:51;3.00;2.00;2.00
73832;PMS7003;62179;48.444;-4.464;2024-01-15T20:02:20;3.00;2.00;1.00
73832;PMS7003;62179;48.444;-4.464;2024-01-15T20:04:46;5.00;2.25;1.25
73832;PMS7003;62179;48.444;-4.464;2024-01-15T20:07:12;0.00;0.00;0.00
73832;PMS7003;62179;48.444;-4.464;2024-01-15T20:09:38;1.00;1.00;1.00
73832;PMS7003;62179;48.444;-4.464;2024-01-15T20:12:04;3.50;2.50;2.00
73832;PMS7003;62179;48.444;-4.464;2024-01-15T20:14:30;2.00;2.00;2.00
73832;PMS7003;62179;48.444;-4.464;2024-01-15T20:16:56;4.00;3.00;3.00
73832;PMS7003;62179;48.444;-4.464;2024-01-15T20:19:23;1.75;1.75;1.00
73832;PMS7003;62179;48.444;-4.464;2024-01-15T20:21:49;3.50;1.00;1.00
73832;PMS7003;62179;48.444;-4.464;2024-01-15T20:24:14;5.00;1.50;0.00
73832;PMS7003;62179;48.444;-4.464;2024-01-15T20:26:43;2.75;2.00;1.25
73832;PMS7003;62179;48.444;-4.464;2024-01-15T20:29:08;2.50;2.50;1.75
73832;PMS7003;62179;48.444;-4.464;2024-01-15T20:31:34;3.50;1.75;1.00
73832;PMS7003;62179;48.444;-4.464;2024-01-15T20:33:59;1.00;1.00;1.00
73832;PMS7003;62179;48.444;-4.464;2024-01-15T20:36:30;2.00;2.00;1.00
73832;PMS7003;62179;48.444;-4.464;2024-01-15T20:38:59;2.00;2.00;1.50
73832;PMS7003;62179;48.444;-4.464;2024-01-15T20:41:25;2.75;1.75;1.00
73832;PMS7003;62179;48.444;-4.464;2024-01-15T20:43:51;2.75;2.00;1.00
73832;PMS7003;62179;48.444;-4.464;2024-01-15T20:46:17;1.00;1.00;0.00
73832;PMS7003;62179;48.444;-4.464;2024-01-15T20:48:42;1.75;1.75;1.00
73832;PMS7003;62179;48.444;-4.464;2024-01-15T20:51:11;2.00;2.00;1.00
73832;PMS7003;62179;48.444;-4.464;2024-01-15T20:53:39;3.00;3.00;1.00
73832;PMS7003;62179;48.444;-4.464;2024-01-15T20:56:06;3.25;2.25;2.00
73832;PMS7003;62179;48.444;-4.464;2024-01-15T20:58:32;3.50;3.50;1.75
73832;PMS7003;62179;48.444;-4.464;2024-01-15T21:00:57;3.75;2.00;1.50
73832;PMS7003;62179;48.444;-4.464;2024-01-15T21:03:23;1.50;1.50;1.00
73832;PMS7003;62179;48.444;-4.464;2024-01-15T21:05:48;1.75;0.00;0.00
73832;PMS7003;62179;48.444;-4.464;2024-01-15T21:08:14;2.75;1.75;1.00
73832;PMS7003;62179;48.444;-4.464;2024-01-15T21:10:40;2.00;2.00;1.00
73832;PMS7003;62179;48.444;-4.464;2024-01-15T21:13:06;1.25;1.25;1.00
73832;PMS7003;62179;48.444;-4.464;2024-01-15T21:15:32;3.00;3.00;2.00
73832;PMS7003;62179;48.444;-4.464;2024-01-15T21:17:58;2.25;1.25;1.00
73832;PMS7003;62179;48.444;-4.464;2024-01-15T21:20:24;3.00;1.00;1.00
73832;PMS7003;62179;48.444;-4.464;2024-01-15T21:22:51;2.50;2.50;1.00
73832;PMS7003;62179;48.444;-4.464;2024-01-15T21:25:17;1.75;1.75;1.50
73832;PMS7003;62179;48.444;-4.464;2024-01-15T21:27:43;1.00;1.00;1.00
73832;PMS7003;62179;48.444;-4.464;2024-01-15T21:30:11;3.00;3.00;2.00
73832;PMS7003;62179;48.444;-4.464;2024-01-15T21:32:37;2.00;2.00;1.25
73832;PMS7003;62179;48.444;-4.464;2024-01-15T21:35:04;2.50;1.50;0.75
73832;PMS7003;62179;48.444;-4.464;2024-01-15T21:37:30;0.50;0.50;0.50
73832;PMS7003;62179;48.444;-4.464;2024-01-15T21:39:56;1.75;1.75;1.00
73832;PMS7003;62179;48.444;-4.464;2024-01-15T21:42:22;2.00;0.75;0.75
73832;PMS7003;62179;48.444;-4.464;2024-01-15T21:44:48;1.25;1.25;1.00
73832;PMS7003;62179;48.444;-4.464;2024-01-15T21:47:13;2.00;2.00;1.00
73832;PMS7003;62179;48.444;-4.464;2024-01-15T21:49:39;2.00;2.00;1.00
73832;PMS7003;62179;48.444;-4.464;2024-01-15T21:52:06;1.00;1.00;1.00
73832;PMS7003;62179;48.444;-4.464;2024-01-15T21:54:31;1.75;1.25;1.00
73832;PMS7003;62179;48.444;-4.464;2024-01-15T21:56:57;2.25;1.50;1.00
73832;PMS7003;62179;48.444;-4.464;2024-01-15T21:59:22;0.75;0.75;0.75
73832;PMS7003;62179;48.444;-4.464;2024-01-15T22:01:49;1.75;1.75;1.00
73832;PMS7003;62179;48.444;-4.464;2024-01-15T22:04:20;5.00;1.00;1.00
73832;PMS7003;62179;48.444;-4.464;2024-01-15T22:06:46;1.00;1.00;1.00
73832;PMS7003;62179;48.444;-4.464;2024-01-15T22:09:11;1.00;1.00;0.25
73832;PMS7003;62179;48.444;-4.464;2024-01-15T22:11:37;1.75;1.00;1.00
73832;PMS7003;62179;48.444;-4.464;2024-01-15T22:14:02;1.00;1.00;1.00
73832;PMS7003;62179;48.444;-4.464;2024-01-15T22:16:29;1.00;1.00;1.00
73832;PMS7003;62179;48.444;-4.464;2024-01-15T22:18:55;2.00;2.00;1.00
73832;PMS7003;62179;48.444;-4.464;2024-01-15T22:21:20;1.00;1.00;0.75
73832;PMS7003;62179;48.444;-4.464;2024-01-15T22:23:46;1.50;1.50;1.50
73832;PMS7003;62179;48.444;-4.464;2024-01-15T22:26:11;11.50;9.00;6.00
73832;PMS7003;62179;48.444;-4.464;2024-01-15T22:28:38;10.50;7.50;6.25
73832;PMS7003;62179;48.444;-4.464;2024-01-15T22:31:04;9.00;7.25;2.75
73832;PMS7003;62179;48.444;-4.464;2024-01-15T22:33:30;7.00;7.00;5.00
73832;PMS7003;62179;48.444;-4.464;2024-01-15T22:35:55;6.75;6.75;5.00
73832;PMS7003;62179;48.444;-4.464;2024-01-15T22:38:21;7.50;7.50;5.50
73832;PMS7003;62179;48.444;-4.464;2024-01-15T22:40:46;6.25;6.00;5.00
73832;PMS7003;62179;48.444;-4.464;2024-01-15T22:43:12;6.00;3.00;2.00
73832;PMS7003;62179;48.444;-4.464;2024-01-15T22:45:37;6.25;4.00;1.50
73832;PMS7003;62179;48.444;-4.464;2024-01-15T22:48:03;1.75;1.75;1.50
73832;PMS7003;62179;48.444;-4.464;2024-01-15T22:50:29;4.00;4.00;2.00
73832;PMS7003;62179;48.444;-4.464;2024-01-15T22:52:54;2.50;2.50;1.50
73832;PMS7003;62179;48.444;-4.464;2024-01-15T22:55:19;2.75;2.75;2.00
73832;PMS7003;62179;48.444;-4.464;2024-01-15T22:57:45;3.50;3.50;2.00
73832;PMS7003;62179;48.444;-4.464;2024-01-15T23:00:11;3.00;2.00;1.75
73832;PMS7003;62179;48.444;-4.464;2024-01-15T23:02:43;1.75;1.75;1.00
73832;PMS7003;62179;48.444;-4.464;2024-01-15T23:05:10;3.75;3.75;1.75
73832;PMS7003;62179;48.444;-4.464;2024-01-15T23:07:35;2.00;2.00;2.00
73832;PMS7003;62179;48.444;-4.464;2024-01-15T23:10:01;6.25;2.25;2.00
73832;PMS7003;62179;48.444;-4.464;2024-01-15T23:12:26;6.75;4.00;3.00
73832;PMS7003;62179;48.444;-4.464;2024-01-15T23:14:51;5.25;4.50;3.00
73832;PMS7003;62179;48.444;-4.464;2024-01-15T23:17:17;3.00;3.00;2.00
73832;PMS7003;62179;48.444;-4.464;2024-01-15T23:19:42;5.25;5.25;3.00
73832;PMS7003;62179;48.444;-4.464;2024-01-15T23:22:08;2.00;2.00;1.75
73832;PMS7003;62179;48.444;-4.464;2024-01-15T23:24:33;4.00;2.25;1.00
73832;PMS7003;62179;48.444;-4.464;2024-01-15T23:26:59;0.50;0.50;0.50
73832;PMS7003;62179;48.444;-4.464;2024-01-15T23:29:25;3.00;1.00;1.00
73832;PMS7003;62179;48.444;-4.464;2024-01-15T23:31:50;2.50;2.00;1.00
73832;PMS7003;62179;48.444;-4.464;2024-01-15T23:34:16;3.75;1.75;1.00
73832;PMS7003;62179;48.444;-4.464;2024-01-15T23:36:41;1.50;1.50;1.00
73832;PMS7003;62179;48.444;-4.464;2024-01-15T23:39:08;4.00;1.75;1.25
73832;PMS7003;62179;48.444;-4.464;2024-01-15T23:41:33;7.25;5.00;3.00
73832;PMS7003;62179;48.444;-4.464;2024-01-15T23:44:01;7.00;3.50;3.00
73832;PMS7003;62179;48.444;-4.464;2024-01-15T23:46:29;3.50;1.25;1.00
73832;PMS7003;62179;48.444;-4.464;2024-01-15T23:48:55;2.25;2.25;1.50
73832;PMS7003;62179;48.444;-4.464;2024-01-15T23:51:20;3.00;3.00;1.75
73832;PMS7003;62179;48.444;-4.464;2024-01-15T23:53:46;3.00;3.00;3.00
73832;PMS7003;62179;48.444;-4.464;2024-01-15T23:56:12;5.75;5.75;3.00
73832;PMS7003;62179;48.444;-4.464;2024-01-15T23:58:39;4.00;2.00;2.00
